AirNav   Pilot Hours Calculator
 
 1138 users online  

TX82 Laguna Park Community Airport
Laguna Park, Texas, USA

GOING TO LAGUNA PARK?


FAA INFORMATION EFFECTIVE 26 MARCH 2020

Location

FAA Identifier: TX82
Lat/Long: 31-51-49.2475N 097-22-52.2345W
31-51.820792N 097-22.870575W
31.8636799,-97.3811763
(estimated)
Elevation: 620 ft. / 189 m (estimated)
Variation: 06E (1995)
From city: 4 miles E of LAGUNA PARK, TX
Time zone: UTC -5 (UTC -6 during Standard Time)
Zip code: 76634

Airport Operations

Airport use: Private use. Permission required prior to landing
Activation date: 10/1996
Control tower: no
ARTCC: FORT WORTH CENTER
FSS: FORT WORTH FLIGHT SERVICE STATION
Attendance: UNATNDD
Wind indicator: yes
Segmented circle: no

Airport Communications

WX ASOS at ACT (17 nm SE): PHONE 254-759-3065
WX AWOS-3 at INJ (20 nm NE): 118.725 (254-582-0063)

Nearby radio navigation aids

VOR radial/distance  VOR name  Freq  Var
ACTr326/13.4WACO VORTAC115.3009E
JENr119/30.9GLEN ROSE VORTAC115.0006E

 
NDB name  Hdg/Dist  Freq  Var  ID
ROBINSON321/26.840003EROB .-. --- -...

Airport Services

Runway Information

Runway 15/33

Dimensions: 1824 x 150 ft. / 556 x 46 m
Surface: turf
RUNWAY 15  RUNWAY 33
Latitude: 31-51.953500N31-51.688083N
Longitude: 097-22.953567W097-22.787583W
Elevation: 588.0 ft.601.0 ft.
Traffic pattern: leftleft
Displaced threshold: 608 ft.431 ft.
Obstructions: 25 ft. trees, 50 ft. from runway, 1:1 slope to clear
RY 15 ADDL OBSTNS: 31 FT TREE 59 FT FM THLD; 23 FT TREE 116 FT FM THLD; 26 FT POLE 177 FT FM THLD; 5 FT FENCE 47 FT FM THLD.
25 ft. bldg, 50 ft. from runway, 1:1 slope to clear
RY 33 ADDL OBSTNS: 27 FT TREE 120 FT FM THLD; 20 FT BLDG 92 FT FM THLD; 24 FT TREE 85 FT FM THLD; 31 FT POLE 93 FT FM THLD; 5 FT FENCE 22 FT FM THLD.

Airport Ownership and Management from official FAA records

Ownership: Privately-owned
Owner: LAGUNA PARK COMMUNITY AIRFIELD, INC
PO BOX 5146
LAGUNA PARK, TX 76644
Phone (254) 709-9842
LAGUNA PARK COMMUNITY AIRFIELD, INC., A TEXAS NONPROFIT CORPORATION.
Manager: TOMMY TIGERT
1305 FERRIS RD
LANCASTER, TX 75146
Phone (972) 27-6836

Airport Operational Statistics

Aircraft based on the field: 3
Single engine airplanes: 3
    

Additional Remarks

TURF RY OVERLAYS SOLID LIMESTONE.
AIRSTRIP 3.8 MILES S OF LAKE WHITNEY STATE PARK ARPT.
EMERG HEL LNDG ZONE ON W SIDE OF RY 15/33.
ACFT ON RY 15 APCH WILL EXPERIENCE UPDRAFTS AND DOWN DRAFTS WHEN THE WIND SPEED IS GREATER THAN 15 MPH SOUTH WIND AND THE ACFT IS BELOW 250 FT.
BLUFFS AND LAKE WITHIN 3,000 FT N OF RY 33; RY UNDULATES BETWEEN ENDS.
40 FT TREES ALONG E AND W SIDE OF RY 15/33.
POWER PLANT AND MANY HIGH VOLTAGE LINES WITHIN 2,640 FT S OF RY 15.
AIRSTRIP 3.8 MILES SOUTH OF LAKE WHITNEY STATE PARK AIRPORT
FOR CD CTC FORT WORTH ARTCC AT 817-858-7584.

Instrument Procedures

There are no published instrument procedures at TX82.

Some nearby airports with instrument procedures:

KACT - Waco Regional Airport (17 nm SE)
KINJ - Hillsboro Municipal Airport (20 nm NE)
KCNW - TSTC Waco Airport (21 nm SE)
KPWG - Mc Gregor Executive Airport (23 nm S)
KCPT - Cleburne Regional Airport (30 nm N)
 
Loc | Ops | Rwys | IFR | FBO | Links
Com | Nav | Svcs | Stats | Notes
Area around TX82 (Laguna Park Community Airport)
 
Road maps at: MapQuest Bing Google
 
Aerial photo
WARNING: Photo may not be current or correct
Aerial photo of TX82 (Laguna Park Community Airport)
Photo by Rick Fields
Taken in 2011
looking south.

Do you have a better or more recent aerial photo of Laguna Park Community Airport that you would like to share? If so, please send us your photo.

 
Sectional chart

 
Airport distance calculator
Flying to Laguna Park Community Airport? Find the distance to fly.

From to TX82

Sunrise and sunset
Times for 01-Apr-2020
 Local
(UTC-5)
 Zulu
(UTC)
Morning civil twilight06:5311:53
Sunrise07:1812:18
Sunset19:4900:49
Evening civil twilight20:1301:13

Current date and time
Zulu (UTC)  01-Apr-2020 19:51:49
Local (UTC-5)  01-Apr-2020 14:51:49
 
METAR
KACT 
17nm SE 
011851Z 16013KT 10SM CLR 21/12 A2999 RMK AO2 SLP150 T02060117
KINJ 
20nm NE 
011935Z AUTO 14012KT 10SM CLR 21/12 A2996 RMK AO2 T02060121
KCNW 
21nm SE 
011855Z 19011G15KT 10SM SKC 20/13 A3000
KPWG 
24nm S 
011856Z AUTO 15010G14KT 10SM CLR 21/12 A2999 RMK AO2 SLP152 T02060122 $
KCPT 
30nm N 
011935Z AUTO 14012G18KT 8SM CLR 19/12 A2996 RMK A01
TAF
KACT 
17nm SE 
011739Z 0118/0218 16010KT P6SM BKN250 FM021200 17011KT P6SM OVC020 FM021300 17012KT P6SM OVC015
NOTAMs
Click for the latest NOTAMs
NOTAMs are issued by the DoD/FAA and will open in a separate window not controlled by AirNav.

 

 
 

Would you like to see your business listed on this page?

 If your business provides an interesting product or service to pilots, flight crews, aircraft, or users of the Laguna Park Community Airport, you should consider listing it here.  To start the listing process, click on the button below
 
Add a business
 

Other Pages about Laguna Park Community Airport

Update a link
 
Copyright © AirNav, LLC. All rights reserved. Privacy Policy  Contact